Time,TemperatureF,DewpointF,PressureIn,WindDirection,WindDirectionDegrees,WindSpeedMPH,WindSpeedGustMPH,Humidity,HourlyPrecipIn,Conditions,Clouds,dailyrainin,SoftwareType,DateUTC
2013-01-26 00:00:00,53.1,50.5,30.25,SW,216,0.0,0.0,91,0.00,,,0.00,Wunderground v.1.15,2013-01-26 05:00:00,
2013-01-26 00:02:00,53.1,50.5,30.25,SW,215,0.0,0.0,91,0.00,,,0.00,Wunderground v.1.15,2013-01-26 05:02:00,
2013-01-26 00:04:00,53.2,50.9,30.25,SW,216,0.0,0.0,92,0.00,,,0.00,Wunderground v.1.15,2013-01-26 05:04:00,
2013-01-26 00:05:00,53.1,50.8,30.25,SW,216,0.0,0.0,92,0.00,,,0.00,Wunderground v.1.15,2013-01-26 05:05:00,
2013-01-26 00:11:00,53.1,50.5,30.25,SW,216,0.0,0.0,91,0.00,,,0.00,Wunderground v.1.15,2013-01-26 05:11:00,
2013-01-26 00:16:00,53.0,50.4,30.25,SW,216,0.0,0.0,91,0.00,,,0.00,Wunderground v.1.15,2013-01-26 05:16:00,
2013-01-26 00:22:00,53.1,50.8,30.25,SW,216,0.0,0.0,92,0.00,,,0.00,Wunderground v.1.15,2013-01-26 05:22:00,
2013-01-26 00:27:00,53.5,51.8,30.25,SW,215,0.0,0.0,94,0.00,,,0.00,Wunderground v.1.15,2013-01-26 05:27:00,
2013-01-26 00:33:00,53.9,52.2,30.25,SW,216,0.0,0.0,94,0.00,,,0.00,Wunderground v.1.15,2013-01-26 05:33:00,
2013-01-26 00:39:00,54.2,52.5,30.25,SW,216,0.0,0.0,94,0.00,,,0.00,Wunderground v.1.15,2013-01-26 05:39:00,
2013-01-26 00:45:00,54.4,52.7,30.25,SW,216,0.0,0.0,94,0.00,,,0.00,Wunderground v.1.15,2013-01-26 05:45:00,
2013-01-26 00:50:00,54.5,53.1,30.25,SW,215,0.0,0.0,95,0.00,,,0.00,Wunderground v.1.15,2013-01-26 05:50:00,
2013-01-26 00:56:00,54.6,52.9,30.25,SW,215,0.0,0.0,94,0.00,,,0.00,Wunderground v.1.15,2013-01-26 05:56:00,
2013-01-26 01:01:00,54.7,53.0,30.25,SW,215,0.0,0.0,94,0.00,,,0.00,Wunderground v.1.15,2013-01-26 06:01:00,
2013-01-26 01:07:00,54.9,53.2,30.26,SW,215,0.0,0.0,94,0.00,,,0.00,Wunderground v.1.15,2013-01-26 06:07:00,
2013-01-26 01:13:00,55.0,53.6,30.26,SW,215,0.0,0.0,95,0.00,,,0.00,Wunderground v.1.15,2013-01-26 06:13:00,
2013-01-26 01:18:00,55.0,53.6,30.26,SW,216,0.0,0.0,95,0.00,,,0.00,Wunderground v.1.15,2013-01-26 06:18:00,
2013-01-26 01:24:00,55.1,53.7,30.26,SW,215,0.0,0.0,95,0.00,,,0.00,Wunderground v.1.15,2013-01-26 06:24:00,
2013-01-26 01:30:00,55.3,53.9,30.26,SW,215,0.0,0.0,95,0.00,,,0.00,Wunderground v.1.15,2013-01-26 06:30:00,
2013-01-26 01:35:00,55.2,53.8,30.26,SW,215,0.0,0.0,95,0.00,,,0.00,Wunderground v.1.15,2013-01-26 06:35:00,
2013-01-26 01:41:00,55.2,53.5,30.25,SW,216,0.0,0.0,94,0.00,,,0.00,Wunderground v.1.15,2013-01-26 06:41:00,
2013-01-26 01:47:00,55.2,53.5,30.25,SW,216,0.0,0.0,94,0.00,,,0.00,Wunderground v.1.15,2013-01-26 06:47:00,
2013-01-26 01:52:00,55.0,53.3,30.25,SW,215,0.0,0.0,94,0.00,,,0.00,Wunderground v.1.15,2013-01-26 06:52:00,
2013-01-26 01:58:00,54.9,53.2,30.25,SW,215,0.0,0.0,94,0.00,,,0.00,Wunderground v.1.15,2013-01-26 06:58:00,
2013-01-26 02:04:00,54.9,53.2,30.25,SW,216,0.0,0.0,94,0.00,,,0.00,Wunderground v.1.15,2013-01-26 07:04:00,
2013-01-26 02:10:00,54.9,53.2,30.25,SW,215,0.0,0.0,94,0.00,,,0.00,Wunderground v.1.15,2013-01-26 07:10:00,
2013-01-26 02:16:00,54.8,53.1,30.24,SW,216,0.0,0.0,94,0.00,,,0.00,Wunderground v.1.15,2013-01-26 07:16:00,
2013-01-26 02:22:00,54.7,53.0,30.24,SW,215,0.0,0.0,94,0.00,,,0.00,Wunderground v.1.15,2013-01-26 07:22:00,
2013-01-26 02:27:00,54.6,52.9,30.24,SW,216,0.0,0.0,94,0.00,,,0.00,Wunderground v.1.15,2013-01-26 07:27:00,
2013-01-26 02:33:00,54.6,52.9,30.24,SW,216,0.0,0.0,94,0.00,,,0.00,Wunderground v.1.15,2013-01-26 07:33:00,
2013-01-26 02:39:00,54.6,52.9,30.24,SW,215,0.0,0.0,94,0.00,,,0.00,Wunderground v.1.15,2013-01-26 07:39:00,
2013-01-26 02:44:00,54.7,53.3,30.24,SW,216,0.0,0.0,95,0.00,,,0.00,Wunderground v.1.15,2013-01-26 07:44:00,
2013-01-26 02:50:00,54.6,52.9,30.24,SW,215,0.0,0.0,94,0.00,,,0.00,Wunderground v.1.15,2013-01-26 07:50:00,
2013-01-26 02:55:00,54.6,52.9,30.24,SW,216,0.0,0.0,94,0.00,,,0.00,Wunderground v.1.15,2013-01-26 07:55:00,
2013-01-26 03:01:00,54.4,52.7,30.23,SW,216,0.0,0.0,94,0.00,,,0.00,Wunderground v.1.15,2013-01-26 08:01:00,
2013-01-26 03:07:00,54.3,52.6,30.23,SW,215,0.0,0.0,94,0.00,,,0.00,Wunderground v.1.15,2013-01-26 08:07:00,
2013-01-26 03:12:00,54.2,52.5,30.23,SW,215,0.0,0.0,94,0.00,,,0.00,Wunderground v.1.15,2013-01-26 08:12:00,
2013-01-26 03:18:00,54.1,52.4,30.23,SW,216,0.0,0.0,94,0.00,,,0.00,Wunderground v.1.15,2013-01-26 08:18:00,
2013-01-26 03:23:00,54.0,52.3,30.23,SW,216,0.0,0.0,94,0.00,,,0.00,Wunderground v.1.15,2013-01-26 08:23:00,
2013-01-26 03:29:00,53.9,52.2,30.23,SW,215,0.0,0.0,94,0.00,,,0.00,Wunderground v.1.15,2013-01-26 08:29:00,
2013-01-26 03:35:00,53.8,52.1,30.23,SW,215,0.0,0.0,94,0.00,,,0.00,Wunderground v.1.15,2013-01-26 08:35:00,
2013-01-26 03:40:00,53.7,52.0,30.23,SW,215,0.0,0.0,94,0.00,,,0.00,Wunderground v.1.15,2013-01-26 08:40:00,
2013-01-26 03:46:00,53.6,51.9,30.23,SW,216,0.0,0.0,94,0.00,,,0.00,Wunderground v.1.15,2013-01-26 08:46:00,
2013-01-26 03:51:00,53.5,51.8,30.23,SW,215,0.0,0.0,94,0.00,,,0.00,Wunderground v.1.15,2013-01-26 08:51:00,
2013-01-26 03:57:00,53.4,51.7,30.23,SW,216,0.0,0.0,94,0.00,,,0.00,Wunderground v.1.15,2013-01-26 08:57:00,
2013-01-26 04:03:00,53.3,51.6,30.23,SW,216,0.0,0.0,94,0.00,,,0.00,Wunderground v.1.15,2013-01-26 09:03:00,
2013-01-26 04:08:00,53.2,51.5,30.23,SW,215,0.0,0.0,94,0.00,,,0.00,Wunderground v.1.15,2013-01-26 09:08:00,
2013-01-26 04:14:00,53.0,51.3,30.23,SW,216,0.0,0.0,94,0.00,,,0.00,Wunderground v.1.15,2013-01-26 09:14:00,
2013-01-26 04:19:00,52.9,51.2,30.23,SW,215,0.0,0.0,94,0.00,,,0.00,Wunderground v.1.15,2013-01-26 09:19:00,
2013-01-26 04:25:00,52.8,51.1,30.23,SW,216,0.0,0.0,94,0.00,,,0.00,Wunderground v.1.15,2013-01-26 09:25:00,
2013-01-26 04:31:00,52.7,51.0,30.23,SW,215,0.0,0.0,94,0.00,,,0.00,Wunderground v.1.15,2013-01-26 09:31:00,
2013-01-26 04:36:00,52.6,50.9,30.23,SW,216,0.0,0.0,94,0.00,,,0.00,Wunderground v.1.15,2013-01-26 09:36:00,
2013-01-26 04:42:00,52.6,50.9,30.23,SW,216,0.0,0.0,94,0.00,,,0.00,Wunderground v.1.15,2013-01-26 09:42:00,
2013-01-26 04:48:00,52.4,50.7,30.23,SW,216,0.0,0.0,94,0.00,,,0.00,Wunderground v.1.15,2013-01-26 09:48:00,
2013-01-26 04:54:00,52.3,50.6,30.23,SW,216,0.0,0.0,94,0.00,,,0.00,Wunderground v.1.15,2013-01-26 09:54:00,
2013-01-26 04:59:00,52.2,50.5,30.23,SW,216,0.0,0.0,94,0.00,,,0.00,Wunderground v.1.15,2013-01-26 09:59:00,
2013-01-26 05:05:00,52.1,50.4,30.23,SW,215,0.0,0.0,94,0.00,,,0.00,Wunderground v.1.15,2013-01-26 10:05:00,
2013-01-26 05:11:00,52.0,50.3,30.23,SW,216,0.0,0.0,94,0.00,,,0.00,Wunderground v.1.15,2013-01-26 10:11:00,
2013-01-26 05:17:00,51.9,50.5,30.24,SW,216,0.0,0.0,95,0.00,,,0.00,Wunderground v.1.15,2013-01-26 10:17:00,
2013-01-26 05:23:00,51.8,50.1,30.24,SW,216,0.0,0.0,94,0.00,,,0.00,Wunderground v.1.15,2013-01-26 10:23:00,
2013-01-26 05:28:00,51.7,50.0,30.24,SW,216,0.0,0.0,94,0.00,,,0.00,Wunderground v.1.15,2013-01-26 10:28:00,
2013-01-26 05:34:00,51.6,50.2,30.24,SW,216,0.0,0.0,95,0.00,,,0.00,Wunderground v.1.15,2013-01-26 10:34:00,
2013-01-26 05:40:00,51.5,49.8,30.24,SW,216,0.0,0.0,94,0.00,,,0.00,Wunderground v.1.15,2013-01-26 10:40:00,
2013-01-26 05:45:00,51.4,50.0,30.24,SW,216,0.0,0.0,95,0.00,,,0.00,Wunderground v.1.15,2013-01-26 10:45:00,
2013-01-26 05:51:00,51.3,49.9,30.24,SW,216,0.0,0.0,95,0.00,,,0.00,Wunderground v.1.15,2013-01-26 10:51:00,
2013-01-26 05:57:00,51.2,49.8,30.24,SW,216,0.0,0.0,95,0.00,,,0.00,Wunderground v.1.15,2013-01-26 10:57:00,
2013-01-26 06:02:00,51.1,49.4,30.24,SW,216,0.0,0.0,94,0.00,,,0.00,Wunderground v.1.15,2013-01-26 11:02:00,
2013-01-26 06:08:00,50.9,49.2,30.24,SW,215,0.0,0.0,94,0.00,,,0.00,Wunderground v.1.15,2013-01-26 11:08:00,
2013-01-26 06:13:00,50.9,49.2,30.24,SW,215,0.0,0.0,94,0.00,,,0.00,Wunderground v.1.15,2013-01-26 11:13:00,
2013-01-26 06:19:00,50.8,49.4,30.24,SW,216,0.0,0.0,95,0.00,,,0.00,Wunderground v.1.15,2013-01-26 11:19:00,
2013-01-26 06:25:00,50.7,49.3,30.25,SW,216,0.0,0.0,95,0.00,,,0.00,Wunderground v.1.15,2013-01-26 11:25:00,
2013-01-26 06:30:00,50.7,49.3,30.25,SW,216,0.0,0.0,95,0.00,,,0.00,Wunderground v.1.15,2013-01-26 11:30:00,
2013-01-26 06:36:00,50.6,49.2,30.25,SW,215,0.0,0.0,95,0.00,,,0.00,Wunderground v.1.15,2013-01-26 11:36:00,
2013-01-26 06:42:00,50.5,49.1,30.25,SW,215,0.0,0.0,95,0.00,,,0.00,Wunderground v.1.15,2013-01-26 11:42:00,
2013-01-26 06:47:00,50.4,49.0,30.25,SW,215,0.0,0.0,95,0.00,,,0.00,Wunderground v.1.15,2013-01-26 11:47:00,
2013-01-26 06:53:00,50.4,49.0,30.25,SW,216,0.0,0.0,95,0.00,,,0.00,Wunderground v.1.15,2013-01-26 11:53:00,
2013-01-26 06:58:00,50.3,48.9,30.26,SW,215,0.0,0.0,95,0.00,,,0.00,Wunderground v.1.15,2013-01-26 11:58:00,
2013-01-26 07:04:00,50.3,48.9,30.26,SW,216,0.0,0.0,95,0.00,,,0.00,Wunderground v.1.15,2013-01-26 12:04:00,
2013-01-26 07:10:00,50.2,48.8,30.26,SW,216,0.0,0.0,95,0.00,,,0.00,Wunderground v.1.15,2013-01-26 12:10:00,
2013-01-26 07:16:00,50.1,48.7,30.26,SW,216,0.0,0.0,95,0.00,,,0.00,Wunderground v.1.15,2013-01-26 12:16:00,
2013-01-26 07:21:00,50.1,48.7,30.27,SW,215,0.0,0.0,95,0.00,,,0.00,Wunderground v.1.15,2013-01-26 12:21:00,
2013-01-26 07:27:00,50.1,48.7,30.27,SW,215,0.0,0.0,95,0.00,,,0.00,Wunderground v.1.15,2013-01-26 12:27:00,
2013-01-26 07:33:00,50.0,48.6,30.27,SW,215,0.0,0.0,95,0.00,,,0.01,Wunderground v.1.15,2013-01-26 12:33:00,
2013-01-26 07:39:00,50.0,48.6,30.27,SW,215,0.0,0.0,95,0.00,,,0.01,Wunderground v.1.15,2013-01-26 12:39:00,
2013-01-26 07:44:00,50.0,48.6,30.27,SW,215,0.0,0.0,95,0.00,,,0.01,Wunderground v.1.15,2013-01-26 12:44:00,
2013-01-26 07:50:00,50.3,49.2,30.27,SW,215,0.0,0.0,96,0.00,,,0.01,Wunderground v.1.15,2013-01-26 12:50:00,
2013-01-26 07:56:00,51.1,50.0,30.27,SW,216,0.0,0.0,96,0.00,,,0.01,Wunderground v.1.15,2013-01-26 12:56:00,
2013-01-26 08:01:00,51.4,50.3,30.28,SW,216,0.0,0.0,96,0.00,,,0.01,Wunderground v.1.15,2013-01-26 13:01:00,
2013-01-26 08:07:00,51.8,51.0,30.28,SW,215,0.0,0.0,97,0.00,,,0.01,Wunderground v.1.15,2013-01-26 13:07:00,
2013-01-26 08:13:00,52.4,51.6,30.28,SW,215,0.0,0.0,97,0.00,,,0.01,Wunderground v.1.15,2013-01-26 13:13:00,
2013-01-26 08:19:00,53.1,52.3,30.28,SW,216,0.0,0.0,97,0.00,,,0.01,Wunderground v.1.15,2013-01-26 13:19:00,
2013-01-26 08:24:00,53.9,53.1,30.29,SW,216,0.0,0.0,97,0.00,,,0.01,Wunderground v.1.15,2013-01-26 13:24:00,
2013-01-26 08:30:00,54.8,54.0,30.29,SW,216,0.0,0.0,97,0.00,,,0.01,Wunderground v.1.15,2013-01-26 13:30:00,
2013-01-26 08:36:00,55.4,54.6,30.28,SW,215,0.0,0.0,97,0.00,,,0.01,Wunderground v.1.15,2013-01-26 13:36:00,
2013-01-26 08:41:00,55.8,55.0,30.28,SW,216,0.0,0.0,97,0.00,,,0.01,Wunderground v.1.15,2013-01-26 13:41:00,
2013-01-26 08:47:00,56.5,55.7,30.29,SW,216,0.0,0.0,97,0.00,,,0.01,Wunderground v.1.15,2013-01-26 13:47:00,
2013-01-26 08:52:00,56.9,56.1,30.29,SW,215,0.0,0.0,97,0.00,,,0.01,Wunderground v.1.15,2013-01-26 13:52:00,
2013-01-26 08:58:00,57.5,56.7,30.29,SW,216,0.0,0.0,97,0.00,,,0.01,Wunderground v.1.15,2013-01-26 13:58:00,
2013-01-26 09:04:00,58.1,57.3,30.29,SW,215,0.0,0.0,97,0.00,,,0.01,Wunderground v.1.15,2013-01-26 14:04:00,
2013-01-26 09:09:00,58.7,57.9,30.29,SW,215,0.0,0.0,97,0.00,,,0.01,Wunderground v.1.15,2013-01-26 14:09:00,
2013-01-26 09:15:00,59.3,58.4,30.29,SW,215,0.0,0.0,97,0.00,,,0.01,Wunderground v.1.15,2013-01-26 14:15:00,
2013-01-26 09:20:00,59.7,58.8,30.29,SW,216,0.0,0.0,97,0.00,,,0.01,Wunderground v.1.15,2013-01-26 14:20:00,
2013-01-26 09:26:00,60.1,59.2,30.30,SW,215,0.0,0.0,97,0.00,,,0.01,Wunderground v.1.15,2013-01-26 14:26:00,
2013-01-26 09:31:00,60.4,59.5,30.30,SW,215,0.0,0.0,97,0.00,,,0.01,Wunderground v.1.15,2013-01-26 14:31:00,
2013-01-26 09:37:00,61.2,59.8,30.30,SW,215,0.0,0.0,95,0.00,,,0.01,Wunderground v.1.15,2013-01-26 14:37:00,
2013-01-26 09:42:00,61.9,59.2,30.30,SW,215,0.0,0.0,91,0.00,,,0.01,Wunderground v.1.15,2013-01-26 14:42:00,
2013-01-26 09:48:00,62.8,59.2,30.30,SW,216,0.0,0.0,88,0.00,,,0.01,Wunderground v.1.15,2013-01-26 14:48:00,
2013-01-26 09:53:00,63.5,58.6,30.30,SW,216,0.0,0.0,84,0.00,,,0.01,Wunderground v.1.15,2013-01-26 14:53:00,
2013-01-26 09:59:00,64.3,58.7,30.30,SW,216,0.0,0.0,82,0.00,,,0.01,Wunderground v.1.15,2013-01-26 14:59:00,
2013-01-26 10:05:00,65.0,58.0,30.31,SW,215,0.0,0.0,78,0.00,,,0.01,Wunderground v.1.15,2013-01-26 15:05:00,
2013-01-26 10:11:00,65.6,58.2,30.31,SW,215,0.0,0.0,77,0.00,,,0.01,Wunderground v.1.15,2013-01-26 15:11:00,
2013-01-26 10:16:00,66.2,58.8,30.31,SW,216,0.0,0.0,77,0.00,,,0.01,Wunderground v.1.15,2013-01-26 15:16:00,
2013-01-26 10:21:00,66.9,58.7,30.31,SW,216,0.0,0.0,75,0.00,,,0.01,Wunderground v.1.15,2013-01-26 15:21:00,
2013-01-26 10:27:00,67.7,58.3,30.31,SW,215,0.0,0.0,72,0.00,,,0.01,Wunderground v.1.15,2013-01-26 15:27:00,
2013-01-26 10:33:00,68.5,59.1,30.31,SW,216,0.0,0.0,72,0.00,,,0.01,Wunderground v.1.15,2013-01-26 15:33:00,
2013-01-26 10:38:00,69.0,59.2,30.31,SW,216,0.0,0.0,71,0.00,,,0.01,Wunderground v.1.15,2013-01-26 15:38:00,
2013-01-26 10:44:00,69.6,58.2,30.31,SW,216,0.0,0.0,67,0.00,,,0.01,Wunderground v.1.15,2013-01-26 15:44:00,
2013-01-26 10:49:00,69.8,59.2,30.31,SW,216,0.0,0.0,69,0.00,,,0.01,Wunderground v.1.15,2013-01-26 15:49:00,
2013-01-26 10:55:00,70.4,59.7,30.31,SW,215,0.0,0.0,69,0.00,,,0.01,Wunderground v.1.15,2013-01-26 15:55:00,
2013-01-26 11:01:00,70.7,59.2,30.31,SW,216,0.0,1.0,67,0.00,,,0.01,Wunderground v.1.15,2013-01-26 16:01:00,
2013-01-26 11:06:00,70.6,58.3,30.31,NNW,327,0.0,1.0,65,0.00,,,0.01,Wunderground v.1.15,2013-01-26 16:06:00,
2013-01-26 11:12:00,70.0,57.7,30.31,NW,319,0.0,0.0,65,0.00,,,0.01,Wunderground v.1.15,2013-01-26 16:12:00,
2013-01-26 11:17:00,70.3,58.0,30.31,North,355,0.0,3.0,65,0.00,,,0.01,Wunderground v.1.15,2013-01-26 16:17:00,
2013-01-26 11:23:00,70.6,58.3,30.30,North,350,1.0,1.0,65,0.00,,,0.01,Wunderground v.1.15,2013-01-26 16:23:00,
2013-01-26 11:28:00,70.9,57.7,30.30,WNW,298,1.0,4.0,63,0.00,,,0.01,Wunderground v.1.15,2013-01-26 16:28:00,
2013-01-26 11:34:00,70.5,56.9,30.30,NNE,30,1.0,1.0,62,0.00,,,0.01,Wunderground v.1.15,2013-01-26 16:34:00,
2013-01-26 11:40:00,70.2,57.0,30.30,East,87,0.0,0.0,63,0.00,,,0.01,Wunderground v.1.15,2013-01-26 16:40:00,
2013-01-26 11:45:00,70.1,56.5,30.29,East,87,0.0,0.0,62,0.00,,,0.01,Wunderground v.1.15,2013-01-26 16:45:00,
2013-01-26 11:51:00,71.2,56.6,30.29,NNW,346,0.0,4.0,60,0.00,,,0.01,Wunderground v.1.15,2013-01-26 16:51:00,
2013-01-26 11:56:00,71.7,56.1,30.29,North,349,0.0,4.0,58,0.00,,,0.01,Wunderground v.1.15,2013-01-26 16:56:00,
2013-01-26 12:02:00,71.3,53.8,30.29,NNW,338,1.0,2.0,54,0.00,,,0.01,Wunderground v.1.15,2013-01-26 17:02:00,
2013-01-26 12:08:00,71.5,55.9,30.28,NNW,340,1.0,2.0,58,0.00,,,0.01,Wunderground v.1.15,2013-01-26 17:08:00,
2013-01-26 12:13:00,72.1,55.5,30.28,NW,313,0.0,4.0,56,0.00,,,0.01,Wunderground v.1.15,2013-01-26 17:13:00,
2013-01-26 12:19:00,72.3,55.7,30.28,NNE,17,1.0,4.0,56,0.00,,,0.01,Wunderground v.1.15,2013-01-26 17:19:00,
2013-01-26 12:24:00,73.1,56.5,30.27,NW,309,1.0,3.0,56,0.00,,,0.01,Wunderground v.1.15,2013-01-26 17:24:00,
2013-01-26 12:30:00,72.8,56.7,30.27,North,355,3.0,3.0,57,0.00,,,0.01,Wunderground v.1.15,2013-01-26 17:30:00,
2013-01-26 12:35:00,72.2,56.6,30.27,North,355,2.0,3.0,58,0.00,,,0.01,Wunderground v.1.15,2013-01-26 17:35:00,
2013-01-26 12:41:00,71.9,56.3,30.27,NW,310,1.0,4.0,58,0.00,,,0.01,Wunderground v.1.15,2013-01-26 17:41:00,
2013-01-26 12:47:00,72.5,56.4,30.27,NW,309,1.0,4.0,57,0.00,,,0.01,Wunderground v.1.15,2013-01-26 17:47:00,
2013-01-26 12:52:00,73.5,57.3,30.26,NW,305,0.0,4.0,57,0.00,,,0.01,Wunderground v.1.15,2013-01-26 17:52:00,
2013-01-26 12:57:00,73.7,57.5,30.26,NNW,333,1.0,4.0,57,0.00,,,0.01,Wunderground v.1.15,2013-01-26 17:57:00,
2013-01-26 13:03:00,73.8,57.6,30.26,North,360,2.0,6.0,57,0.00,,,0.01,Wunderground v.1.15,2013-01-26 18:03:00,
2013-01-26 13:08:00,73.4,56.7,30.25,North,355,1.0,6.0,56,0.00,,,0.01,Wunderground v.1.15,2013-01-26 18:08:00,
2013-01-26 13:14:00,73.0,56.4,30.25,NW,312,0.0,4.0,56,0.00,,,0.01,Wunderground v.1.15,2013-01-26 18:14:00,
2013-01-26 13:19:00,73.1,56.5,30.25,North,355,1.0,4.0,56,0.00,,,0.01,Wunderground v.1.15,2013-01-26 18:19:00,
2013-01-26 13:25:00,73.1,57.0,30.24,NNW,342,2.0,7.0,57,0.00,,,0.01,Wunderground v.1.15,2013-01-26 18:25:00,
2013-01-26 13:30:00,73.0,56.4,30.24,North,9,3.0,3.0,56,0.00,,,0.01,Wunderground v.1.15,2013-01-26 18:30:00,
2013-01-26 13:36:00,72.9,56.8,30.24,NNW,334,3.0,7.0,57,0.00,,,0.01,Wunderground v.1.15,2013-01-26 18:36:00,
2013-01-26 13:41:00,73.6,56.9,30.23,North,355,2.0,5.0,56,0.00,,,0.01,Wunderground v.1.15,2013-01-26 18:41:00,
2013-01-26 13:47:00,73.4,57.2,30.23,NNW,337,3.0,7.0,57,0.00,,,0.01,Wunderground v.1.15,2013-01-26 18:47:00,
2013-01-26 13:52:00,73.1,57.0,30.23,NW,317,3.0,3.0,57,0.00,,,0.01,Wunderground v.1.15,2013-01-26 18:52:00,
2013-01-26 13:58:00,72.9,57.3,30.22,WNW,293,2.0,4.0,58,0.00,,,0.01,Wunderground v.1.15,2013-01-26 18:58:00,
2013-01-26 14:04:00,73.0,56.9,30.22,NNW,342,2.0,7.0,57,0.00,,,0.01,Wunderground v.1.15,2013-01-26 19:04:00,
2013-01-26 14:09:00,73.3,56.7,30.22,NNE,14,2.0,7.0,56,0.00,,,0.01,Wunderground v.1.15,2013-01-26 19:09:00,
2013-01-26 14:15:00,73.6,56.9,30.22,WNW,296,2.0,5.0,56,0.00,,,0.01,Wunderground v.1.15,2013-01-26 19:15:00,
2013-01-26 14:20:00,73.5,56.3,30.22,NNE,21,3.0,3.0,55,0.00,,,0.01,Wunderground v.1.15,2013-01-26 19:20:00,
2013-01-26 14:26:00,73.1,55.5,30.22,WNW,303,4.0,7.0,54,0.00,,,0.01,Wunderground v.1.15,2013-01-26 19:26:00,
2013-01-26 14:31:00,73.2,55.6,30.22,NW,313,3.0,5.0,54,0.00,,,0.01,Wunderground v.1.15,2013-01-26 19:31:00,
2013-01-26 14:37:00,73.3,56.2,30.21,North,360,2.0,6.0,55,0.00,,,0.01,Wunderground v.1.15,2013-01-26 19:37:00,
2013-01-26 14:42:00,73.3,55.6,30.21,NNE,18,3.0,4.0,54,0.00,,,0.01,Wunderground v.1.15,2013-01-26 19:42:00,
2013-01-26 14:48:00,74.1,56.4,30.21,North,11,2.0,4.0,54,0.00,,,0.01,Wunderground v.1.15,2013-01-26 19:48:00,
2013-01-26 14:54:00,74.2,56.0,30.21,NNW,336,1.0,6.0,53,0.00,,,0.01,Wunderground v.1.15,2013-01-26 19:54:00,
2013-01-26 14:59:00,73.8,56.6,30.21,NNW,346,3.0,6.0,55,0.00,,,0.01,Wunderground v.1.15,2013-01-26 19:59:00,
2013-01-26 15:05:00,73.5,55.8,30.21,NNW,327,3.0,9.0,54,0.00,,,0.01,Wunderground v.1.15,2013-01-26 20:05:00,
2013-01-26 15:11:00,73.3,56.7,30.21,NW,325,3.0,3.0,56,0.00,,,0.01,Wunderground v.1.15,2013-01-26 20:11:00,
2013-01-26 15:16:00,73.0,56.4,30.21,NNW,327,3.0,3.0,56,0.00,,,0.01,Wunderground v.1.15,2013-01-26 20:16:00,
2013-01-26 15:22:00,73.1,57.0,30.21,NW,319,2.0,3.0,57,0.00,,,0.01,Wunderground v.1.15,2013-01-26 20:22:00,
2013-01-26 15:27:00,73.3,57.1,30.20,NNW,342,2.0,6.0,57,0.00,,,0.01,Wunderground v.1.15,2013-01-26 20:27:00,
2013-01-26 15:33:00,73.3,57.1,30.20,North,360,2.0,7.0,57,0.00,,,0.01,Wunderground v.1.15,2013-01-26 20:33:00,
2013-01-26 15:38:00,73.0,57.3,30.20,North,355,2.0,7.0,58,0.00,,,0.01,Wunderground v.1.15,2013-01-26 20:38:00,
2013-01-26 15:44:00,73.0,57.8,30.20,NW,312,1.0,5.0,59,0.00,,,0.01,Wunderground v.1.15,2013-01-26 20:44:00,
2013-01-26 15:49:00,72.8,57.6,30.20,WNW,284,2.0,5.0,59,0.00,,,0.01,Wunderground v.1.15,2013-01-26 20:49:00,
2013-01-26 15:55:00,72.7,58.0,30.20,North,355,2.0,4.0,60,0.00,,,0.01,Wunderground v.1.15,2013-01-26 20:55:00,
2013-01-26 16:00:00,72.8,58.1,30.20,NNW,338,1.0,2.0,60,0.00,,,0.01,Wunderground v.1.15,2013-01-26 21:00:00,
2013-01-26 16:05:00,72.6,57.9,30.21,NNW,348,2.0,10.0,60,0.00,,,0.01,Wunderground v.1.15,2013-01-26 21:05:00,
2013-01-26 16:11:00,72.5,58.3,30.20,NNW,346,1.0,2.0,61,0.00,,,0.01,Wunderground v.1.15,2013-01-26 21:11:00,
2013-01-26 16:17:00,72.4,58.2,30.21,NNW,327,1.0,3.0,61,0.00,,,0.01,Wunderground v.1.15,2013-01-26 21:17:00,
2013-01-26 16:22:00,72.1,57.9,30.20,NNW,346,3.0,4.0,61,0.00,,,0.01,Wunderground v.1.15,2013-01-26 21:22:00,
2013-01-26 16:28:00,71.8,58.1,30.20,NNW,344,3.0,6.0,62,0.00,,,0.01,Wunderground v.1.15,2013-01-26 21:28:00,
2013-01-26 16:33:00,71.6,57.9,30.20,NNW,343,3.0,6.0,62,0.00,,,0.01,Wunderground v.1.15,2013-01-26 21:33:00,
2013-01-26 16:39:00,71.4,58.1,30.21,NNW,340,3.0,6.0,63,0.00,,,0.01,Wunderground v.1.15,2013-01-26 21:39:00,
2013-01-26 16:44:00,71.2,58.0,30.21,NNW,338,3.0,6.0,63,0.00,,,0.01,Wunderground v.1.15,2013-01-26 21:44:00,
2013-01-26 16:50:00,70.9,58.1,30.21,NW,326,2.0,4.0,64,0.00,,,0.01,Wunderground v.1.15,2013-01-26 21:50:00,
2013-01-26 16:55:00,70.6,58.3,30.21,North,355,3.0,5.0,65,0.00,,,0.01,Wunderground v.1.15,2013-01-26 21:55:00,
2013-01-26 17:01:00,70.3,58.0,30.21,WNW,298,4.0,9.0,65,0.00,,,0.01,Wunderground v.1.15,2013-01-26 22:01:00,
2013-01-26 17:06:00,70.1,58.2,30.21,North,355,4.0,9.0,66,0.00,,,0.01,Wunderground v.1.15,2013-01-26 22:06:00,
2013-01-26 17:12:00,69.7,58.3,30.21,North,355,3.0,5.0,67,0.00,,,0.01,Wunderground v.1.15,2013-01-26 22:12:00,
2013-01-26 17:17:00,69.5,58.1,30.22,NW,311,3.0,6.0,67,0.00,,,0.01,Wunderground v.1.15,2013-01-26 22:17:00,
2013-01-26 17:22:00,69.3,58.3,30.22,NNW,328,2.0,3.0,68,0.00,,,0.01,Wunderground v.1.15,2013-01-26 22:22:00,
2013-01-26 17:28:00,69.0,58.0,30.22,NW,307,2.0,4.0,68,0.00,,,0.01,Wunderground v.1.15,2013-01-26 22:28:00,
2013-01-26 17:34:00,68.7,58.1,30.22,NW,310,2.0,6.0,69,0.00,,,0.01,Wunderground v.1.15,2013-01-26 22:34:00,
2013-01-26 17:39:00,68.4,57.8,30.22,WNW,299,2.0,6.0,69,0.00,,,0.01,Wunderground v.1.15,2013-01-26 22:39:00,
2013-01-26 17:44:00,68.2,58.0,30.22,NW,321,2.0,3.0,70,0.00,,,0.01,Wunderground v.1.15,2013-01-26 22:44:00,
2013-01-26 17:50:00,67.9,57.8,30.22,NNW,331,2.0,2.0,70,0.00,,,0.01,Wunderground v.1.15,2013-01-26 22:50:00,
2013-01-26 17:55:00,67.6,57.5,30.22,NW,308,1.0,4.0,70,0.00,,,0.01,Wunderground v.1.15,2013-01-26 22:55:00,
2013-01-26 18:01:00,67.4,57.7,30.22,WNW,297,2.0,10.0,71,0.00,,,0.01,Wunderground v.1.15,2013-01-26 23:01:00,
2013-01-26 18:06:00,67.2,57.5,30.22,NNW,333,2.0,10.0,71,0.00,,,0.01,Wunderground v.1.15,2013-01-26 23:06:00,
2013-01-26 18:12:00,66.9,57.6,30.23,NNW,330,1.0,1.0,72,0.00,,,0.01,Wunderground v.1.15,2013-01-26 23:12:00,
2013-01-26 18:17:00,66.7,57.8,30.23,NNW,329,0.0,4.0,73,0.00,,,0.01,Wunderground v.1.15,2013-01-26 23:17:00,
2013-01-26 18:23:00,66.5,57.6,30.23,North,360,1.0,3.0,73,0.00,,,0.01,Wunderground v.1.15,2013-01-26 23:23:00,
2013-01-26 18:28:00,66.3,57.8,30.23,NW,305,1.0,3.0,74,0.00,,,0.01,Wunderground v.1.15,2013-01-26 23:28:00,
2013-01-26 18:34:00,66.0,57.5,30.23,NW,306,0.0,0.0,74,0.00,,,0.01,Wunderground v.1.15,2013-01-26 23:34:00,
2013-01-26 18:40:00,65.8,57.7,30.23,NW,306,0.0,0.0,75,0.00,,,0.01,Wunderground v.1.15,2013-01-26 23:40:00,
2013-01-26 18:45:00,65.6,57.8,30.23,NW,306,0.0,0.0,76,0.00,,,0.01,Wunderground v.1.15,2013-01-26 23:45:00,
2013-01-26 18:51:00,65.4,57.6,30.23,NW,306,0.0,0.0,76,0.00,,,0.01,Wunderground v.1.15,2013-01-26 23:51:00,
2013-01-26 18:56:00,65.3,57.9,30.23,NW,306,0.0,0.0,77,0.00,,,0.01,Wunderground v.1.15,2013-01-26 23:56:00,
2013-01-26 19:02:00,65.1,57.7,30.23,NW,306,0.0,7.0,77,0.00,,,0.01,Wunderground v.1.15,2013-01-27 00:02:00,
2013-01-26 19:07:00,64.9,57.5,30.23,NW,306,0.0,7.0,77,0.00,,,0.01,Wunderground v.1.15,2013-01-27 00:07:00,
2013-01-26 19:13:00,64.7,57.7,30.23,NW,306,0.0,0.0,78,0.00,,,0.01,Wunderground v.1.15,2013-01-27 00:13:00,
2013-01-26 19:18:00,64.5,57.5,30.23,NW,306,0.0,0.0,78,0.00,,,0.01,Wunderground v.1.15,2013-01-27 00:18:00,
2013-01-26 19:24:00,64.3,57.6,30.23,NW,306,0.0,0.0,79,0.00,,,0.01,Wunderground v.1.15,2013-01-27 00:24:00,
2013-01-26 19:29:00,64.1,57.8,30.23,NW,306,0.0,0.0,80,0.00,,,0.01,Wunderground v.1.15,2013-01-27 00:29:00,
2013-01-26 19:35:00,63.9,57.6,30.24,NW,306,0.0,0.0,80,0.00,,,0.01,Wunderground v.1.15,2013-01-27 00:35:00,
2013-01-26 19:40:00,63.6,57.7,30.24,NW,306,0.0,0.0,81,0.00,,,0.01,Wunderground v.1.15,2013-01-27 00:40:00,
2013-01-26 19:46:00,63.4,57.8,30.24,NW,306,0.0,2.0,82,0.00,,,0.01,Wunderground v.1.15,2013-01-27 00:46:00,
2013-01-26 19:52:00,63.3,57.7,30.24,NW,306,0.0,1.0,82,0.00,,,0.01,Wunderground v.1.15,2013-01-27 00:52:00,
2013-01-26 19:57:00,63.2,57.6,30.24,NW,306,0.0,1.0,82,0.00,,,0.01,Wunderground v.1.15,2013-01-27 00:57:00,
2013-01-26 20:03:00,63.1,57.9,30.24,NW,306,0.0,0.0,83,0.00,,,0.01,Wunderground v.1.15,2013-01-27 01:03:00,
2013-01-26 20:08:00,63.0,57.8,30.24,NW,306,0.0,0.0,83,0.00,,,0.01,Wunderground v.1.15,2013-01-27 01:08:00,
2013-01-26 20:13:00,62.9,57.7,30.24,NW,306,0.0,0.0,83,0.00,,,0.01,Wunderground v.1.15,2013-01-27 01:13:00,
2013-01-26 20:19:00,62.8,57.9,30.24,NW,306,0.0,0.0,84,0.00,,,0.01,Wunderground v.1.15,2013-01-27 01:19:00,
2013-01-26 20:24:00,62.7,57.8,30.24,NW,306,0.0,0.0,84,0.00,,,0.01,Wunderground v.1.15,2013-01-27 01:24:00,
2013-01-26 20:30:00,62.6,57.7,30.24,NW,306,0.0,0.0,84,0.00,,,0.01,Wunderground v.1.15,2013-01-27 01:30:00,
2013-01-26 20:35:00,62.5,57.6,30.24,NW,306,0.0,0.0,84,0.00,,,0.01,Wunderground v.1.15,2013-01-27 01:35:00,
2013-01-26 20:41:00,62.3,57.4,30.24,NW,306,0.0,0.0,84,0.00,,,0.01,Wunderground v.1.15,2013-01-27 01:41:00,
2013-01-26 20:47:00,62.1,57.5,30.24,NW,306,0.0,0.0,85,0.00,,,0.01,Wunderground v.1.15,2013-01-27 01:47:00,
2013-01-26 20:52:00,62.0,57.4,30.24,NW,306,0.0,0.0,85,0.00,,,0.01,Wunderground v.1.15,2013-01-27 01:52:00,
2013-01-26 20:58:00,61.8,57.2,30.24,NW,306,0.0,0.0,85,0.00,,,0.01,Wunderground v.1.15,2013-01-27 01:58:00,
2013-01-26 21:04:00,61.6,57.4,30.24,NW,306,0.0,2.0,86,0.00,,,0.01,Wunderground v.1.15,2013-01-27 02:04:00,
2013-01-26 21:09:00,61.4,57.2,30.24,NW,306,0.0,2.0,86,0.00,,,0.01,Wunderground v.1.15,2013-01-27 02:09:00,
2013-01-26 21:15:00,61.2,57.0,30.24,NW,306,0.0,0.0,86,0.00,,,0.01,Wunderground v.1.15,2013-01-27 02:15:00,
2013-01-26 21:21:00,61.0,56.8,30.24,NW,306,0.0,0.0,86,0.00,,,0.01,Wunderground v.1.15,2013-01-27 02:21:00,
2013-01-26 21:27:00,60.9,56.7,30.24,NW,306,0.0,0.0,86,0.00,,,0.01,Wunderground v.1.15,2013-01-27 02:27:00,
2013-01-26 21:32:00,60.7,56.8,30.25,NW,306,0.0,0.0,87,0.00,,,0.01,Wunderground v.1.15,2013-01-27 02:32:00,
2013-01-26 21:38:00,60.5,56.6,30.25,NW,306,0.0,0.0,87,0.00,,,0.01,Wunderground v.1.15,2013-01-27 02:38:00,
2013-01-26 21:43:00,60.3,56.7,30.25,NW,306,0.0,0.0,88,0.00,,,0.01,Wunderground v.1.15,2013-01-27 02:43:00,
2013-01-26 21:49:00,60.1,56.5,30.25,NW,306,0.0,0.0,88,0.00,,,0.01,Wunderground v.1.15,2013-01-27 02:49:00,
2013-01-26 21:54:00,59.9,56.3,30.25,NW,306,0.0,0.0,88,0.00,,,0.01,Wunderground v.1.15,2013-01-27 02:54:00,
2013-01-26 22:00:00,59.7,56.1,30.25,NW,306,0.0,0.0,88,0.00,,,0.01,Wunderground v.1.15,2013-01-27 03:00:00,
2013-01-26 22:05:00,59.6,56.0,30.25,NW,306,0.0,0.0,88,0.00,,,0.01,Wunderground v.1.15,2013-01-27 03:05:00,
2013-01-26 22:11:00,59.4,56.2,30.25,NW,306,0.0,0.0,89,0.00,,,0.01,Wunderground v.1.15,2013-01-27 03:11:00,
2013-01-26 22:17:00,59.2,55.6,30.26,NW,306,0.0,0.0,88,0.00,,,0.01,Wunderground v.1.15,2013-01-27 03:17:00,
2013-01-26 22:22:00,59.1,56.2,30.26,NW,306,0.0,0.0,90,0.00,,,0.01,Wunderground v.1.15,2013-01-27 03:22:00,
2013-01-26 22:28:00,59.0,56.1,30.26,NW,306,0.0,0.0,90,0.00,,,0.01,Wunderground v.1.15,2013-01-27 03:28:00,
2013-01-26 22:33:00,58.8,55.9,30.26,NW,306,0.0,0.0,90,0.00,,,0.01,Wunderground v.1.15,2013-01-27 03:33:00,
2013-01-26 22:39:00,58.7,55.8,30.26,NW,306,0.0,0.0,90,0.00,,,0.01,Wunderground v.1.15,2013-01-27 03:39:00,
2013-01-26 22:44:00,58.6,55.7,30.26,NW,306,0.0,0.0,90,0.00,,,0.01,Wunderground v.1.15,2013-01-27 03:44:00,
2013-01-26 22:50:00,58.5,55.6,30.26,NW,306,0.0,0.0,90,0.00,,,0.01,Wunderground v.1.15,2013-01-27 03:50:00,
2013-01-26 22:56:00,58.4,55.5,30.26,NW,306,0.0,0.0,90,0.00,,,0.01,Wunderground v.1.15,2013-01-27 03:56:00,
2013-01-26 23:02:00,58.2,55.3,30.26,NW,306,0.0,0.0,90,0.00,,,0.01,Wunderground v.1.15,2013-01-27 04:02:00,
2013-01-26 23:07:00,58.1,55.2,30.26,NW,306,0.0,0.0,90,0.00,,,0.01,Wunderground v.1.15,2013-01-27 04:07:00,
2013-01-26 23:13:00,58.0,55.1,30.26,NW,306,0.0,0.0,90,0.00,,,0.01,Wunderground v.1.15,2013-01-27 04:13:00,
2013-01-26 23:18:00,57.9,55.3,30.26,NW,306,0.0,0.0,91,0.00,,,0.01,Wunderground v.1.15,2013-01-27 04:18:00,
2013-01-26 23:24:00,57.7,55.1,30.26,NW,306,0.0,0.0,91,0.00,,,0.01,Wunderground v.1.15,2013-01-27 04:24:00,
2013-01-26 23:29:00,57.6,55.0,30.26,NW,306,0.0,0.0,91,0.00,,,0.01,Wunderground v.1.15,2013-01-27 04:29:00,
2013-01-26 23:35:00,57.5,54.9,30.26,NW,306,0.0,0.0,91,0.00,,,0.01,Wunderground v.1.15,2013-01-27 04:35:00,
2013-01-26 23:40:00,57.4,55.1,30.26,NW,306,0.0,0.0,92,0.00,,,0.01,Wunderground v.1.15,2013-01-27 04:40:00,
2013-01-26 23:46:00,57.4,55.1,30.26,NW,306,0.0,0.0,92,0.00,,,0.01,Wunderground v.1.15,2013-01-27 04:46:00,
2013-01-26 23:52:00,57.3,54.7,30.26,NW,306,0.0,0.0,91,0.00,,,0.01,Wunderground v.1.15,2013-01-27 04:52:00,
2013-01-26 23:57:00,57.1,54.5,30.26,NW,306,0.0,0.0,91,0.00,,,0.01,Wunderground v.1.15,2013-01-27 04:57:00,